Time;durP1;ratioP1;P1;durP2;ratioP2;P2;SDS_P1;SDS_P2;PMS_P1;PMS_P2;Temp;Humidity;BMP_temperature;BMP_pressure;BME280_temperature;BME280_humidity;BME280_pressure;Samples;Min_cycle;Max_cycle;Signal;HPM_P1;HPM_P2
2024/01/16 00:03:04;;;;;;;0.50;0.50;;;2.40;90.40;;;;;;10562931;28;20254;-80
2024/01/16 00:08:08;;;;;;;0.30;0.30;;;2.40;90.60;;;;;;10562228;28;20191;-80
2024/01/16 00:13:10;;;;;;;0.50;0.50;;;2.40;90.60;;;;;;10582522;28;20230;-82
2024/01/16 00:18:12;;;;;;;0.30;0.30;;;2.40;90.30;;;;;;10550950;28;20435;-80
2024/01/16 00:23:16;;;;;;;0.30;0.30;;;2.30;90.50;;;;;;10581866;28;20219;-78
2024/01/16 00:28:19;;;;;;;0.40;0.40;;;2.30;90.60;;;;;;10572630;28;20195;-82
2024/01/16 00:33:22;;;;;;;0.30;0.30;;;2.30;91.00;;;;;;10568155;28;20768;-81
2024/01/16 00:38:26;;;;;;;0.30;0.30;;;2.20;90.70;;;;;;10566237;28;20216;-80
2024/01/16 00:43:28;;;;;;;0.40;0.40;;;2.20;91.10;;;;;;10565921;28;20265;-80
2024/01/16 00:48:30;;;;;;;0.30;0.30;;;2.20;91.10;;;;;;10564515;28;20711;-79
2024/01/16 00:53:34;;;;;;;0.30;0.30;;;2.20;91.30;;;;;;10564941;28;20216;-82
2024/01/16 00:58:37;;;;;;;0.30;0.30;;;2.30;91.20;;;;;;10569478;28;20219;-82
2024/01/16 01:03:40;;;;;;;0.20;0.20;;;2.30;91.20;;;;;;10573612;28;20231;-82
2024/01/16 01:08:43;;;;;;;0.30;0.30;;;2.30;91.10;;;;;;10571703;28;20196;-80
2024/01/16 01:13:46;;;;;;;0.20;0.20;;;2.20;91.10;;;;;;10562005;28;20227;-82
2024/01/16 01:18:48;;;;;;;0.30;0.30;;;2.30;91.40;;;;;;10587575;28;20222;-79
2024/01/16 01:23:52;;;;;;;0.30;0.30;;;2.30;91.60;;;;;;10580947;28;20220;-79
2024/01/16 01:28:54;;;;;;;0.30;0.30;;;2.40;91.30;;;;;;10571826;28;20204;-81
2024/01/16 01:33:57;;;;;;;0.30;0.30;;;2.50;91.30;;;;;;10569954;28;20216;-83
2024/01/16 01:39:00;;;;;;;0.20;0.20;;;2.50;91.00;;;;;;10575530;28;20566;-82
2024/01/16 01:44:02;;;;;;;0.30;0.30;;;2.50;91.10;;;;;;10577398;28;20224;-82
2024/01/16 01:49:05;;;;;;;0.30;0.30;;;2.40;91.30;;;;;;10575901;28;20210;-81
2024/01/16 01:54:09;;;;;;;0.30;0.30;;;2.40;91.30;;;;;;10573856;28;20224;-80
2024/01/16 01:59:14;;;;;;;0.30;0.30;;;2.40;91.40;;;;;;10570908;28;20220;-80
2024/01/16 02:04:18;;;;;;;0.30;0.30;;;2.40;91.40;;;;;;10568907;28;20713;-80
2024/01/16 02:09:21;;;;;;;0.30;0.30;;;2.40;91.00;;;;;;10580631;28;20195;-79
2024/01/16 02:14:24;;;;;;;0.20;0.20;;;2.40;91.10;;;;;;10571326;28;20219;-82
2024/01/16 02:19:26;;;;;;;0.30;0.30;;;2.30;90.90;;;;;;10580434;28;20220;-81
2024/01/16 02:24:30;;;;;;;0.30;0.30;;;2.20;90.90;;;;;;10581269;27;20223;-80
2024/01/16 02:29:32;;;;;;;0.30;0.30;;;2.20;91.00;;;;;;10582888;28;20203;-81
2024/01/16 02:34:34;;;;;;;0.30;0.30;;;2.10;90.90;;;;;;10581143;28;20725;-79
2024/01/16 02:39:38;;;;;;;0.30;0.30;;;2.00;90.70;;;;;;10579856;28;20212;-81
2024/01/16 02:44:41;;;;;;;0.30;0.30;;;2.10;90.70;;;;;;10579611;28;20266;-79
2024/01/16 02:49:43;;;;;;;0.30;0.30;;;2.00;90.80;;;;;;10577801;28;20206;-83
2024/01/16 02:54:47;;;;;;;0.30;0.30;;;2.00;90.90;;;;;;10576885;28;20234;-79
2024/01/16 02:59:50;;;;;;;0.30;0.30;;;1.90;90.70;;;;;;10578096;28;20223;-80
2024/01/16 03:04:52;;;;;;;0.30;0.30;;;1.80;90.50;;;;;;10568482;28;20235;-79
2024/01/16 03:09:56;;;;;;;0.30;0.30;;;1.70;90.50;;;;;;10575307;28;20199;-79
2024/01/16 03:14:58;;;;;;;0.30;0.30;;;1.70;90.70;;;;;;10555436;28;20741;-81
2024/01/16 03:20:01;;;;;;;0.40;0.40;;;1.70;90.80;;;;;;10579911;28;20245;-79
2024/01/16 03:25:05;;;;;;;0.30;0.30;;;1.60;90.70;;;;;;10580745;28;20230;-81
2024/01/16 03:30:09;;;;;;;0.40;0.40;;;1.70;91.00;;;;;;10579318;28;20599;-79
2024/01/16 03:35:11;;;;;;;0.30;0.30;;;1.70;90.80;;;;;;10548212;28;20218;-80
2024/01/16 03:40:15;;;;;;;0.30;0.30;;;1.60;90.40;;;;;;10579019;28;20215;-81
2024/01/16 03:45:18;;;;;;;0.30;0.30;;;1.60;90.40;;;;;;10546447;28;20222;-81
2024/01/16 03:50:20;;;;;;;0.40;0.40;;;1.50;90.70;;;;;;10581489;28;20195;-79
2024/01/16 03:55:24;;;;;;;0.30;0.30;;;1.50;90.80;;;;;;10582018;28;20226;-78
2024/01/16 04:00:26;;;;;;;0.30;0.30;;;1.50;90.90;;;;;;10583408;28;20215;-83
2024/01/16 04:05:29;;;;;;;0.50;0.50;;;1.50;90.40;;;;;;10583825;28;20700;-82
2024/01/16 04:10:32;;;;;;;0.50;0.50;;;1.40;90.20;;;;;;10581861;28;20195;-80
2024/01/16 04:15:38;;;;;;;0.70;0.70;;;1.40;90.60;;;;;;10579703;28;20229;-81
2024/01/16 04:20:40;;;;;;;0.57;0.57;;;1.40;90.40;;;;;;10583877;28;20684;-80
2024/01/16 04:25:44;;;;;;;0.50;0.50;;;1.40;90.20;;;;;;10581286;28;20640;-80
2024/01/16 04:30:46;;;;;;;0.70;0.70;;;1.30;90.40;;;;;;10567386;28;20198;-81
2024/01/16 04:35:49;;;;;;;0.60;0.60;;;1.40;90.50;;;;;;10550941;28;20261;-81
2024/01/16 04:40:52;;;;;;;0.30;0.30;;;1.30;90.50;;;;;;10582275;28;20231;-82
2024/01/16 04:45:55;;;;;;;0.60;0.60;;;1.30;90.60;;;;;;10581119;28;20272;-79
2024/01/16 04:50:57;;;;;;;0.60;0.60;;;1.30;91.00;;;;;;10591138;28;20192;-81
2024/01/16 04:56:01;;;;;;;0.50;0.50;;;1.30;91.10;;;;;;10554808;28;20746;-78
2024/01/16 05:01:03;;;;;;;0.70;0.70;;;1.30;90.70;;;;;;10566896;27;20715;-80
2024/01/16 05:06:12;;;;;;;0.40;0.40;;;1.40;90.60;;;;;;10499229;22;20223;-79
2024/01/16 05:11:16;;;;;;;0.40;0.40;;;1.30;90.60;;;;;;10477181;28;20251;-81
2024/01/16 05:16:18;;;;;;;0.30;0.30;;;1.30;90.70;;;;;;10443617;28;20275;-80
2024/01/16 05:21:21;;;;;;;0.50;0.50;;;1.30;90.60;;;;;;10470320;28;20225;-80
2024/01/16 05:26:24;;;;;;;0.40;0.40;;;1.30;90.60;;;;;;10475466;28;20217;-80
2024/01/16 05:31:27;;;;;;;0.40;0.40;;;1.30;90.60;;;;;;10473763;28;20205;-80
2024/01/16 05:36:29;;;;;;;0.50;0.50;;;1.30;90.50;;;;;;10467557;28;20209;-80
2024/01/16 05:41:35;;;;;;;0.10;0.10;;;1.30;90.40;;;;;;10463920;28;20233;-79
2024/01/16 05:46:37;;;;;;;0.60;0.60;;;1.30;89.80;;;;;;10461405;28;20229;-81
2024/01/16 05:51:39;;;;;;;0.40;0.40;;;1.20;88.70;;;;;;10460876;28;20201;-81
2024/01/16 05:56:43;;;;;;;0.50;0.50;;;1.10;88.20;;;;;;10463229;28;20217;-80
2024/01/16 06:01:45;;;;;;;0.40;0.40;;;0.90;88.60;;;;;;10465954;28;20233;-81
2024/01/16 06:06:48;;;;;;;0.20;0.20;;;0.70;88.90;;;;;;10469007;28;20209;-80
2024/01/16 06:11:51;;;;;;;0.40;0.40;;;0.70;90.20;;;;;;10467543;28;20209;-79
2024/01/16 06:16:53;;;;;;;0.50;0.50;;;0.70;89.80;;;;;;10468890;28;20201;-80
2024/01/16 06:21:56;;;;;;;0.40;0.40;;;0.70;89.90;;;;;;10472133;28;20232;-81
2024/01/16 06:26:59;;;;;;;0.50;0.50;;;0.80;90.10;;;;;;10455195;28;20220;-80
2024/01/16 06:32:02;;;;;;;0.50;0.50;;;0.80;89.60;;;;;;10454755;28;20243;-79
2024/01/16 06:37:04;;;;;;;0.30;0.30;;;0.90;88.80;;;;;;10453329;28;20193;-79
2024/01/16 06:42:08;;;;;;;0.30;0.30;;;0.90;89.00;;;;;;10463418;28;20295;-82
2024/01/16 06:47:11;;;;;;;0.40;0.40;;;0.90;88.50;;;;;;10463548;28;20355;-80
2024/01/16 06:52:13;;;;;;;0.50;0.50;;;1.00;87.70;;;;;;10466992;28;20212;-79
2024/01/16 06:57:17;;;;;;;0.10;0.10;;;1.00;88.30;;;;;;10464045;28;20209;-80
2024/01/16 07:02:19;;;;;;;0.50;0.50;;;1.10;88.40;;;;;;10463481;28;20225;-79
2024/01/16 07:07:22;;;;;;;0.20;0.20;;;1.10;87.90;;;;;;10461244;28;20201;-79
2024/01/16 07:12:25;;;;;;;0.50;0.50;;;1.10;86.50;;;;;;10464760;28;20221;-81
2024/01/16 07:17:28;;;;;;;0.50;0.50;;;1.10;86.90;;;;;;10468732;28;20663;-79
2024/01/16 07:22:30;;;;;;;0.50;0.50;;;1.10;86.30;;;;;;10470169;28;20221;-79
2024/01/16 07:27:34;;;;;;;0.23;0.23;;;1.10;86.10;;;;;;10464987;28;20675;-80
2024/01/16 07:32:36;;;;;;;0.50;0.50;;;1.10;86.40;;;;;;10459786;28;20263;-81
2024/01/16 07:37:39;;;;;;;0.40;0.40;;;1.10;86.20;;;;;;10458765;28;20686;-81
2024/01/16 07:42:42;;;;;;;0.50;0.50;;;1.10;85.70;;;;;;10459637;28;20228;-79
2024/01/16 07:47:45;;;;;;;0.40;0.40;;;1.20;85.70;;;;;;10458827;28;20201;-80
2024/01/16 07:52:47;;;;;;;0.40;0.40;;;1.20;86.30;;;;;;10460904;28;20515;-80
2024/01/16 07:57:51;;;;;;;0.50;0.50;;;1.30;87.00;;;;;;10462548;28;20205;-77
2024/01/16 08:02:53;;;;;;;0.50;0.50;;;1.40;86.20;;;;;;10435899;28;20282;-80
2024/01/16 08:07:55;;;;;;;0.50;0.50;;;1.50;85.90;;;;;;10468117;28;20196;-78
2024/01/16 08:12:59;;;;;;;0.40;0.40;;;1.60;85.20;;;;;;10475364;28;20217;-77
2024/01/16 08:18:02;;;;;;;0.50;0.50;;;1.60;84.50;;;;;;10463392;28;20278;-79
2024/01/16 08:23:04;;;;;;;0.33;0.33;;;1.70;84.40;;;;;;10465869;28;20286;-79
2024/01/16 08:28:08;;;;;;;0.40;0.40;;;1.80;84.30;;;;;;10465682;28;20434;-78
2024/01/16 08:33:11;;;;;;;0.50;0.50;;;1.90;84.60;;;;;;10460276;28;20237;-77
2024/01/16 08:38:14;;;;;;;0.33;0.33;;;2.00;84.90;;;;;;10461447;28;20577;-78
2024/01/16 08:43:17;;;;;;;0.40;0.40;;;2.10;85.10;;;;;;10464486;28;20221;-80
2024/01/16 08:48:20;;;;;;;0.40;0.40;;;2.20;85.10;;;;;;10466450;28;20209;-80
2024/01/16 08:53:23;;;;;;;0.30;0.30;;;2.30;84.80;;;;;;10467235;28;20217;-79
2024/01/16 08:58:26;;;;;;;0.20;0.20;;;2.40;84.90;;;;;;10468784;28;20197;-81
2024/01/16 09:03:29;;;;;;;0.10;0.10;;;2.40;84.10;;;;;;10469012;28;20232;-80
2024/01/16 09:08:34;;;;;;;0.27;0.27;;;2.50;83.30;;;;;;10461520;28;20206;-80
2024/01/16 09:13:37;;;;;;;0.40;0.40;;;2.50;83.50;;;;;;10458066;28;20225;-79
2024/01/16 09:18:40;;;;;;;0.30;0.30;;;2.60;83.50;;;;;;10464483;28;20213;-81
2024/01/16 09:23:42;;;;;;;0.40;0.40;;;2.70;83.40;;;;;;10463300;28;20282;-81
2024/01/16 09:28:46;;;;;;;0.40;0.40;;;2.70;82.90;;;;;;10470986;28;20193;-78
2024/01/16 09:33:48;;;;;;;0.40;0.40;;;2.70;82.40;;;;;;10465423;28;20225;-80
2024/01/16 09:38:51;;;;;;;0.20;0.20;;;2.80;83.40;;;;;;10468463;28;20220;-80
2024/01/16 09:43:54;;;;;;;0.40;0.40;;;2.90;81.70;;;;;;10463466;28;20229;-79
2024/01/16 09:48:57;;;;;;;0.40;0.40;;;2.90;81.50;;;;;;10470924;28;20667;-81
2024/01/16 09:54:01;;;;;;;0.27;0.27;;;2.90;80.80;;;;;;10466133;28;20225;-81
2024/01/16 09:59:08;;;;;;;0.30;0.30;;;2.90;80.50;;;;;;10464101;28;20209;-78
2024/01/16 10:04:11;;;;;;;0.40;0.40;;;2.90;81.10;;;;;;10466171;28;20740;-79
2024/01/16 10:09:14;;;;;;;0.30;0.30;;;3.00;81.80;;;;;;10465566;28;20651;-80
2024/01/16 10:14:19;;;;;;;0.33;0.33;;;3.10;82.20;;;;;;10468350;28;20228;-79
2024/01/16 10:19:21;;;;;;;0.20;0.20;;;3.20;82.20;;;;;;10467805;28;20228;-80
2024/01/16 10:24:23;;;;;;;0.30;0.30;;;3.40;80.90;;;;;;10469816;28;20222;-80
2024/01/16 10:29:27;;;;;;;0.40;0.40;;;3.40;81.40;;;;;;10460205;28;20202;-80
2024/01/16 10:34:30;;;;;;;0.30;0.30;;;3.60;80.40;;;;;;10447065;28;20286;-79
2024/01/16 10:39:32;;;;;;;0.40;0.40;;;3.60;80.50;;;;;;10451876;28;20637;-78
2024/01/16 10:44:37;;;;;;;0.30;0.30;;;3.70;80.50;;;;;;10453720;28;20623;-80
2024/01/16 10:49:40;;;;;;;0.30;0.30;;;3.70;81.40;;;;;;10452403;28;20205;-80
2024/01/16 10:54:44;;;;;;;0.30;0.30;;;3.80;80.70;;;;;;10457818;28;20228;-80
2024/01/16 11:00:04;;;;;;;0.20;0.20;;;3.90;81.40;;;;;;10442350;28;20251;-77
2024/01/16 11:05:07;;;;;;;0.37;0.37;;;3.90;81.30;;;;;;10454904;28;20221;-77
2024/01/16 11:10:10;;;;;;;0.20;0.20;;;3.80;79.70;;;;;;10452884;28;20205;-78
2024/01/16 11:15:15;;;;;;;0.20;0.20;;;3.70;78.80;;;;;;10453535;28;20262;-78
2024/01/16 11:20:18;;;;;;;0.30;0.30;;;3.60;78.60;;;;;;10453098;28;20225;-79
2024/01/16 11:25:21;;;;;;;0.20;0.20;;;3.50;79.60;;;;;;10452325;28;20248;-78
2024/01/16 11:30:32;;;;;;;0.30;0.30;;;3.50;81.60;;;;;;10444462;28;20197;-78
2024/01/16 11:35:36;;;;;;;0.20;0.20;;;3.50;81.60;;;;;;10452803;28;20712;-79
2024/01/16 11:40:38;;;;;;;0.30;0.30;;;3.50;81.60;;;;;;10444749;28;20233;-77
2024/01/16 11:45:54;;;;;;;0.20;0.20;;;3.40;82.00;;;;;;10424304;28;20226;-78
2024/01/16 11:50:57;;;;;;;0.20;0.20;;;3.40;82.30;;;;;;10439068;28;20201;-79
2024/01/16 11:56:14;;;;;;;0.30;0.30;;;3.40;80.20;;;;;;10452171;28;20666;-79
2024/01/16 12:01:20;;;;;;;0.20;0.20;;;3.40;79.30;;;;;;10452905;28;20267;-78
2024/01/16 12:06:23;;;;;;;0.30;0.30;;;3.40;80.00;;;;;;10451016;28;20229;-78
2024/01/16 12:11:25;;;;;;;0.20;0.20;;;3.40;79.80;;;;;;10446157;28;20216;-80
2024/01/16 12:16:29;;;;;;;0.30;0.30;;;3.40;79.50;;;;;;10447188;28;20263;-79
2024/01/16 12:21:34;;;;;;;0.20;0.20;;;3.50;79.40;;;;;;10455885;28;20220;-79
2024/01/16 12:26:36;;;;;;;0.10;0.10;;;3.40;78.10;;;;;;10456323;28;20221;-78
2024/01/16 12:31:40;;;;;;;0.20;0.20;;;3.40;78.50;;;;;;10452988;28;20679;-78
2024/01/16 12:36:43;;;;;;;0.20;0.20;;;3.40;76.90;;;;;;10445829;28;20217;-79
2024/01/16 12:41:47;;;;;;;0.30;0.30;;;3.40;77.80;;;;;;10444556;28;20225;-79
2024/01/16 12:46:57;;;;;;;0.20;0.20;;;3.40;78.80;;;;;;10431031;28;20202;-78
2024/01/16 12:52:21;;;;;;;0.20;0.20;;;3.40;78.70;;;;;;10453920;28;20660;-79
2024/01/16 12:57:23;;;;;;;0.30;0.30;;;3.40;78.30;;;;;;10465293;28;20701;-78
2024/01/16 13:02:27;;;;;;;0.30;0.30;;;3.50;78.30;;;;;;10454120;28;20217;-78
2024/01/16 13:07:31;;;;;;;0.30;0.30;;;3.50;78.10;;;;;;10420104;28;20240;-78
2024/01/16 13:12:33;;;;;;;0.10;0.10;;;3.50;79.50;;;;;;10448452;28;20213;-78
2024/01/16 13:17:37;;;;;;;0.20;0.20;;;3.50;80.30;;;;;;10455519;28;20205;-78
2024/01/16 13:22:40;;;;;;;0.10;0.10;;;3.50;78.60;;;;;;10425383;28;20703;-77
2024/01/16 13:27:42;;;;;;;0.10;0.10;;;3.50;78.00;;;;;;10448392;28;20213;-78
2024/01/16 13:32:46;;;;;;;0.20;0.20;;;3.50;77.60;;;;;;10450354;28;20604;-79
2024/01/16 13:37:48;;;;;;;0.30;0.30;;;3.50;75.80;;;;;;10457379;28;20682;-78
2024/01/16 13:42:54;;;;;;;0.20;0.20;;;3.60;76.10;;;;;;10457729;28;20504;-78
2024/01/16 13:47:58;;;;;;;0.20;0.20;;;3.50;77.70;;;;;;10457667;28;20194;-78
2024/01/16 13:53:01;;;;;;;0.20;0.20;;;3.60;76.40;;;;;;10450500;28;20286;-78
2024/01/16 13:58:04;;;;;;;0.30;0.30;;;3.60;75.40;;;;;;10458485;28;20198;-78
2024/01/16 14:03:07;;;;;;;0.30;0.30;;;3.60;74.30;;;;;;10430433;28;20240;-78
2024/01/16 14:08:12;;;;;;;0.20;0.20;;;3.50;74.60;;;;;;10442145;28;20206;-78
2024/01/16 14:13:15;;;;;;;0.30;0.30;;;3.50;75.50;;;;;;10456121;28;20494;-77
2024/01/16 14:18:19;;;;;;;0.20;0.20;;;3.50;76.20;;;;;;10438206;28;20251;-79
2024/01/16 14:23:21;;;;;;;0.30;0.30;;;3.50;76.00;;;;;;10458697;28;20232;-79
2024/01/16 14:28:26;;;;;;;0.13;0.13;;;3.50;77.50;;;;;;10461464;28;20624;-78
2024/01/16 14:33:29;;;;;;;0.40;0.40;;;3.50;76.60;;;;;;10454728;28;20217;-79
2024/01/16 14:38:32;;;;;;;0.50;0.50;;;3.50;76.50;;;;;;10453533;28;20208;-79
2024/01/16 14:43:34;;;;;;;0.30;0.30;;;3.40;76.10;;;;;;10439690;28;20584;-77
2024/01/16 14:48:39;;;;;;;0.40;0.40;;;3.30;77.20;;;;;;10447226;28;20718;-77
2024/01/16 14:53:41;;;;;;;0.30;0.30;;;3.30;78.10;;;;;;10426555;28;20217;-78
2024/01/16 14:58:43;;;;;;;0.30;0.30;;;3.20;78.80;;;;;;10450210;28;20208;-77
2024/01/16 15:03:48;;;;;;;0.30;0.30;;;3.10;79.90;;;;;;10455462;28;20282;-79
2024/01/16 15:08:51;;;;;;;0.40;0.40;;;3.00;79.50;;;;;;10454478;28;20638;-77
2024/01/16 15:13:57;;;;;;;0.20;0.20;;;2.80;79.90;;;;;;10444100;28;20236;-79
2024/01/16 15:19:01;;;;;;;0.10;0.10;;;2.70;80.30;;;;;;10455936;28;20621;-79
2024/01/16 15:24:03;;;;;;;0.40;0.40;;;2.60;79.70;;;;;;10456045;28;20729;-79
2024/01/16 15:29:06;;;;;;;0.10;0.10;;;2.60;79.80;;;;;;10452402;28;20209;-78
2024/01/16 15:34:10;;;;;;;0.40;0.40;;;2.50;80.40;;;;;;10446840;28;20220;-77
2024/01/16 15:39:15;;;;;;;0.30;0.30;;;2.40;80.70;;;;;;10453407;28;20197;-78
2024/01/16 15:44:17;;;;;;;0.40;0.40;;;2.40;80.20;;;;;;10443481;28;20232;-77
2024/01/16 15:49:21;;;;;;;0.40;0.40;;;2.30;80.70;;;;;;10453656;28;20270;-79
2024/01/16 15:54:24;;;;;;;0.30;0.30;;;2.20;81.10;;;;;;10434626;28;20218;-78
2024/01/16 15:59:26;;;;;;;0.37;0.37;;;2.10;81.20;;;;;;10459093;28;20201;-78
2024/01/16 16:04:30;;;;;;;0.30;0.30;;;2.10;81.40;;;;;;10462302;28;20678;-79
2024/01/16 16:09:33;;;;;;;0.10;0.10;;;2.00;81.20;;;;;;10448213;28;20205;-79
2024/01/16 16:14:39;;;;;;;0.30;0.30;;;1.90;81.40;;;;;;10464082;28;20247;-79
2024/01/16 16:19:43;;;;;;;0.30;0.30;;;1.80;81.70;;;;;;10469558;28;20212;-80
2024/01/16 16:24:45;;;;;;;0.20;0.20;;;1.70;82.50;;;;;;10455052;28;20714;-77
2024/01/16 16:29:47;;;;;;;0.30;0.30;;;1.60;82.60;;;;;;10476459;28;20728;-78
2024/01/16 16:34:51;;;;;;;0.40;0.40;;;1.60;82.90;;;;;;10443871;28;21008;-78
2024/01/16 16:39:54;;;;;;;0.20;0.20;;;1.50;83.70;;;;;;10443428;28;20608;-77
2024/01/16 16:44:56;;;;;;;0.40;0.40;;;1.50;82.70;;;;;;10462346;28;20244;-78
2024/01/16 16:50:00;;;;;;;0.20;0.20;;;1.30;83.10;;;;;;10458746;28;20214;-78
2024/01/16 16:55:02;;;;;;;0.40;0.40;;;1.30;83.50;;;;;;10459916;28;20239;-78
2024/01/16 17:00:08;;;;;;;0.50;0.50;;;1.20;83.60;;;;;;10426429;28;20276;-78
2024/01/16 17:05:12;;;;;;;0.40;0.40;;;1.30;83.40;;;;;;10418799;28;20340;-78
2024/01/16 17:10:15;;;;;;;0.10;0.10;;;1.20;83.60;;;;;;10451107;28;20275;-78
2024/01/16 17:15:17;;;;;;;0.37;0.37;;;1.10;83.70;;;;;;10446618;28;20224;-77
2024/01/16 17:20:21;;;;;;;0.30;0.30;;;1.10;83.80;;;;;;10436841;28;20190;-78
2024/01/16 17:25:24;;;;;;;0.40;0.40;;;1.10;83.30;;;;;;10456148;28;20232;-79
2024/01/16 17:30:26;;;;;;;0.43;0.43;;;1.00;83.30;;;;;;10434814;28;20197;-78
2024/01/16 17:35:30;;;;;;;0.10;0.10;;;1.00;83.40;;;;;;10452778;28;20213;-77
2024/01/16 17:40:33;;;;;;;0.30;0.30;;;0.90;83.50;;;;;;10451584;28;20251;-77
2024/01/16 17:45:36;;;;;;;0.40;0.40;;;0.90;84.20;;;;;;10447595;28;20648;-79
2024/01/16 17:50:40;;;;;;;0.40;0.40;;;0.90;84.40;;;;;;10421291;28;20209;-79
2024/01/16 17:55:42;;;;;;;0.40;0.40;;;0.90;84.40;;;;;;10445829;28;20218;-78
2024/01/16 18:00:45;;;;;;;0.10;0.10;;;0.90;84.20;;;;;;10419070;28;20557;-79
2024/01/16 18:05:49;;;;;;;0.43;0.43;;;0.80;84.40;;;;;;10467515;28;20244;-79
2024/01/16 18:10:53;;;;;;;0.40;0.40;;;0.80;85.30;;;;;;10439696;28;20205;-77
2024/01/16 18:15:57;;;;;;;0.40;0.40;;;0.80;85.40;;;;;;10456578;28;20228;-78
2024/01/16 18:21:01;;;;;;;0.40;0.40;;;0.80;85.00;;;;;;10468037;28;20709;-77
2024/01/16 18:26:04;;;;;;;0.47;0.47;;;0.80;84.80;;;;;;10464047;28;20221;-78
2024/01/16 18:31:08;;;;;;;0.40;0.40;;;0.80;84.80;;;;;;10457153;28;20209;-77
2024/01/16 18:36:12;;;;;;;0.50;0.50;;;0.80;84.70;;;;;;10436694;28;20323;-78
2024/01/16 18:41:15;;;;;;;0.40;0.40;;;0.70;84.50;;;;;;10449429;28;20193;-77
2024/01/16 18:46:18;;;;;;;0.40;0.40;;;0.70;84.80;;;;;;10447907;28;20597;-77
2024/01/16 18:51:22;;;;;;;0.40;0.40;;;0.60;85.00;;;;;;10461844;28;20193;-79
2024/01/16 18:56:24;;;;;;;0.33;0.33;;;0.60;85.90;;;;;;10447938;28;20267;-78
2024/01/16 19:01:28;;;;;;;0.40;0.40;;;0.50;85.20;;;;;;10445686;28;20217;-79
2024/01/16 19:06:32;;;;;;;0.30;0.30;;;0.40;85.70;;;;;;10443878;28;20240;-78
2024/01/16 19:11:35;;;;;;;0.30;0.30;;;0.40;85.90;;;;;;10478604;28;20664;-80
2024/01/16 19:16:37;;;;;;;0.23;0.23;;;0.30;86.00;;;;;;10461584;28;20275;-81
2024/01/16 19:21:41;;;;;;;0.10;0.10;;;0.30;86.50;;;;;;10462233;28;20221;-80
2024/01/16 19:26:45;;;;;;;0.27;0.27;;;0.30;86.00;;;;;;10466577;28;20221;-80
2024/01/16 19:31:48;;;;;;;0.30;0.30;;;0.30;85.90;;;;;;10450258;28;20193;-79
2024/01/16 19:36:52;;;;;;;0.40;0.40;;;0.20;86.10;;;;;;10458197;28;20213;-79
2024/01/16 19:41:54;;;;;;;0.40;0.40;;;0.20;86.40;;;;;;10456418;28;20240;-79
2024/01/16 19:46:56;;;;;;;0.40;0.40;;;0.20;86.70;;;;;;10445176;28;20271;-80
2024/01/16 19:52:00;;;;;;;0.20;0.20;;;0.10;86.60;;;;;;10455663;28;20205;-80
2024/01/16 19:57:03;;;;;;;0.40;0.40;;;0.00;86.60;;;;;;10455096;28;20201;-79
2024/01/16 20:02:06;;;;;;;0.30;0.30;;;0.00;86.80;;;;;;10460990;28;20221;-81
2024/01/16 20:07:10;;;;;;;0.40;0.40;;;-0.10;86.50;;;;;;10443688;28;20198;-80
2024/01/16 20:12:12;;;;;;;0.30;0.30;;;-0.10;86.60;;;;;;10458812;28;20648;-77
2024/01/16 20:17:15;;;;;;;0.40;0.40;;;-0.10;87.50;;;;;;10462298;28;20248;-78
2024/01/16 20:22:19;;;;;;;0.40;0.40;;;-0.20;87.00;;;;;;10475304;28;20283;-82
2024/01/16 20:27:21;;;;;;;0.40;0.40;;;-0.10;86.50;;;;;;10448758;28;20255;-79
2024/01/16 20:32:24;;;;;;;0.40;0.40;;;-0.10;86.60;;;;;;10479620;28;20209;-80
2024/01/16 20:37:29;;;;;;;0.40;0.40;;;-0.10;87.00;;;;;;10487331;28;20290;-81
2024/01/16 20:42:31;;;;;;;0.20;0.20;;;-0.20;87.10;;;;;;10474399;28;20777;-81
2024/01/16 20:47:33;;;;;;;0.40;0.40;;;-0.20;87.20;;;;;;10469477;28;20201;-80
2024/01/16 20:52:37;;;;;;;0.40;0.40;;;-0.20;87.30;;;;;;10467871;28;20216;-80
2024/01/16 20:57:41;;;;;;;0.37;0.37;;;-0.30;87.40;;;;;;10463820;28;20224;-80
2024/01/16 21:02:44;;;;;;;0.40;0.40;;;-0.20;87.80;;;;;;10466336;28;20221;-81
2024/01/16 21:07:48;;;;;;;0.40;0.40;;;-0.20;87.10;;;;;;10467270;28;20220;-81
2024/01/16 21:12:50;;;;;;;0.40;0.40;;;-0.20;87.10;;;;;;10470420;28;20216;-80
2024/01/16 21:17:52;;;;;;;0.40;0.40;;;-0.30;87.50;;;;;;10484932;28;20254;-79
2024/01/16 21:22:56;;;;;;;0.40;0.40;;;-0.30;87.70;;;;;;10481957;28;20232;-78
2024/01/16 21:27:59;;;;;;;0.37;0.37;;;-0.30;88.10;;;;;;10470605;28;20209;-79
2024/01/16 21:33:02;;;;;;;0.30;0.30;;;-0.30;88.80;;;;;;10485116;28;20231;-78
2024/01/16 21:38:06;;;;;;;0.30;0.30;;;-0.30;87.70;;;;;;10496830;28;20223;-81
2024/01/16 21:43:08;;;;;;;0.30;0.30;;;-0.30;87.50;;;;;;10481915;28;20263;-80
2024/01/16 21:48:11;;;;;;;0.30;0.30;;;-0.40;87.80;;;;;;10485602;28;20254;-80
2024/01/16 21:53:15;;;;;;;0.20;0.20;;;-0.40;88.30;;;;;;10522544;28;20209;-80
2024/01/16 21:58:18;;;;;;;0.30;0.30;;;-0.40;88.10;;;;;;10503589;28;20195;-79
2024/01/16 22:03:21;;;;;;;0.30;0.30;;;-0.40;88.40;;;;;;10503897;28;20721;-81
2024/01/16 22:08:25;;;;;;;0.30;0.30;;;-0.40;88.80;;;;;;10506761;28;20201;-80
2024/01/16 22:13:28;;;;;;;0.30;0.30;;;-0.40;89.00;;;;;;10504047;28;20213;-79
2024/01/16 22:18:30;;;;;;;0.30;0.30;;;-0.50;89.10;;;;;;10471488;28;20434;-80
2024/01/16 22:23:34;;;;;;;0.30;0.30;;;-0.40;89.20;;;;;;10469717;28;20729;-80
2024/01/16 22:28:37;;;;;;;0.40;0.40;;;-0.40;89.30;;;;;;10472419;28;20239;-79
2024/01/16 22:33:40;;;;;;;0.30;0.30;;;-0.40;89.40;;;;;;10475496;28;20225;-80
2024/01/16 22:38:46;;;;;;;0.30;0.30;;;-0.40;89.00;;;;;;10473745;28;20198;-80
2024/01/16 22:43:48;;;;;;;0.20;0.20;;;-0.40;89.40;;;;;;10472479;28;20232;-79
2024/01/16 22:48:51;;;;;;;0.30;0.30;;;-0.30;89.20;;;;;;10479178;28;20208;-80
2024/01/16 22:53:55;;;;;;;0.30;0.30;;;-0.30;89.10;;;;;;10473699;28;20553;-79
2024/01/16 22:58:58;;;;;;;0.40;0.40;;;-0.30;89.60;;;;;;10479595;28;20216;-78
2024/01/16 23:04:01;;;;;;;0.23;0.23;;;-0.20;89.60;;;;;;10477857;28;20209;-78
2024/01/16 23:09:06;;;;;;;0.40;0.40;;;-0.10;89.80;;;;;;10467082;28;20259;-80
2024/01/16 23:14:08;;;;;;;0.30;0.30;;;-0.10;89.10;;;;;;10468105;28;20220;-80
2024/01/16 23:19:11;;;;;;;0.30;0.30;;;-0.10;89.20;;;;;;10468793;28;20220;-78
2024/01/16 23:24:16;;;;;;;0.33;0.33;;;0.00;89.50;;;;;;10465886;28;20227;-79
2024/01/16 23:29:18;;;;;;;0.40;0.40;;;0.00;89.60;;;;;;10457403;28;20197;-78
2024/01/16 23:34:20;;;;;;;0.30;0.30;;;0.10;89.80;;;;;;10450876;28;20213;-77
2024/01/16 23:39:25;;;;;;;0.40;0.40;;;0.20;89.70;;;;;;10461660;28;20609;-79
2024/01/16 23:44:29;;;;;;;0.30;0.30;;;0.20;89.60;;;;;;10466693;28;20217;-77
2024/01/16 23:49:35;;;;;;;0.40;0.40;;;0.20;89.20;;;;;;10482322;28;20213;-79
2024/01/16 23:54:39;;;;;;;0.40;0.40;;;0.20;89.50;;;;;;10457644;28;20236;-77
2024/01/16 23:59:41;;;;;;;0.37;0.37;;;0.20;89.40;;;;;;10462159;28;20193;-79
